ADDS METAR Data INFO
IDs: Format: Raw Decoded Include TAF

Data at: 1727 UTC 25 Feb 2018

KEKS 251715Z AUTO 17017KT 10SM CLR M06/M13 A2987 RMK AO2
KEKS 251655Z AUTO 17013G19KT 10SM CLR M06/M13 A2987 RMK AO2
KEKS 251635Z AUTO 16016KT 10SM FEW049 M06/M14 A2987 RMK AO2
KEKS 251615Z AUTO 17012KT 10SM FEW045 SCT050 BKN090 M06/M14 A2988 RMK AO2
KEKS 251555Z AUTO 18009KT 10SM FEW060 SCT065 OVC085 M06/M15 A2988 RMK AO2
KEKS 251535Z AUTO 18011G16KT 10SM FEW055 BKN065 OVC095 M07/M15 A2988 RMK AO2
KEKS 251515Z AUTO 16012KT 10SM FEW070 FEW080 BKN095 M06/M15 A2987 RMK AO2
KEKS 251455Z AUTO 17013KT 10SM BKN080 BKN095 M06/M15 A2987 RMK AO2
KEKS 251435Z AUTO 16014KT 10SM FEW060 OVC085 M07/M15 A2986 RMK AO2
KEKS 251415Z AUTO 17010G16KT 10SM BKN060 OVC090 M06/M15 A2986 RMK AO2
KEKS 251355Z AUTO 19010G21KT 10SM FEW049 SCT065 BKN070 M07/M15 A2986 RMK AO2
KEKS 251335Z AUTO 17012G18KT 10SM FEW050 SCT060 BKN090 M07/M15 A2985 RMK AO2
KEKS 251315Z AUTO 17010G16KT 10SM BKN055 OVC065 M07/M15 A2984 RMK AO2
KEKS 251255Z AUTO 15012KT 10SM BKN060 OVC070 M07/M15 A2984 RMK AO2
KEKS 251235Z AUTO 17011KT 10SM BKN060 OVC065 M07/M15 A2984 RMK AO2
KEKS 251215Z AUTO 16007KT 10SM SCT060 BKN110 M08/M15 A2984 RMK AO2
KEKS 251155Z AUTO 18009G16KT 10SM SCT060 OVC110 M07/M15 A2983 RMK AO2
KEKS 251135Z AUTO 18011KT 10SM BKN060 OVC120 M07/M15 A2983 RMK AO2
KEKS 251115Z AUTO 20015KT 10SM FEW060 OVC120 M07/M15 A2984 RMK AO2
KEKS 251055Z AUTO 21012KT 10SM SCT070 BKN120 M07/M15 A2984 RMK AO2
KEKS 251035Z AUTO 15007G12KT 10SM BKN070 M08/M14 A2984 RMK AO2
KEKS 251015Z AUTO 17011KT 10SM FEW045 BKN060 OVC070 M07/M14 A2984 RMK AO2
KEKS 250955Z AUTO 18009KT 10SM FEW045 BKN065 OVC075 M07/M14 A2985 RMK AO2
KEKS 250935Z AUTO VRB06KT 10SM OVC060 M06/M14 A2985 RMK AO2
KEKS 250915Z AUTO 14008KT 10SM OVC060 M06/M14 A2985 RMK AO2
KEKS 250855Z AUTO 16006KT 10SM OVC060 M06/M14 A2985 RMK AO2
KEKS 250835Z AUTO 15009KT 10SM BKN065 OVC075 M07/M14 A2985 RMK AO2
KEKS 250815Z AUTO 18006KT 10SM OVC060 M06/M14 A2985 RMK AO2
KEKS 250755Z AUTO 16006G11KT 10SM BKN060 OVC065 M06/M13 A2984 RMK AO2
KEKS 250735Z AUTO 15008KT 10SM SCT055 OVC070 M06/M13 A2984 RMK AO2
KEKS 250715Z AUTO 14007KT 10SM SCT055 OVC070 M06/M13 A2984 RMK AO2
KEKS 250655Z AUTO 15009KT 10SM FEW032 SCT049 BKN060 M08/M14 A2984 RMK AO2
KEKS 250635Z AUTO 15010KT 10SM FEW025 BKN046 OVC075 M07/M13 A2983 RMK AO2
KEKS 250615Z AUTO 14009KT 10SM FEW037 SCT049 BKN055 M07/M12 A2983 RMK AO2
KEKS 250555Z AUTO 16008KT 10SM FEW039 BKN049 OVC075 M06/M12 A2983 RMK AO2
KEKS 250535Z AUTO 16008KT 10SM FEW036 BKN050 OVC075 M06/M12 A2982 RMK AO2
KEKS 250515Z AUTO 15009KT 10SM FEW045 BKN055 OVC070 M06/M12 A2982 RMK AO2
KEKS 250455Z AUTO 14010KT 10SM FEW044 BKN055 OVC065 M06/M12 A2982 RMK AO2
KEKS 250435Z AUTO 15011KT 10SM BKN049 OVC060 M07/M12 A2981 RMK AO2
KEKS 250415Z AUTO 16007G13KT 10SM BKN048 BKN060 M07/M12 A2980 RMK AO2
KEKS 250355Z AUTO 20008KT 10SM FEW037 BKN045 M07/M12 A2980 RMK AO2
KEKS 250335Z AUTO 18008G14KT 10SM BKN036 OVC047 M06/M12 A2979 RMK AO2
KEKS 250315Z AUTO 15012KT 10SM SCT035 OVC041 M06/M11 A2978 RMK AO2
KEKS 250255Z AUTO 16015KT 10SM BKN036 OVC041 M06/M12 A2979 RMK AO2
KEKS 250235Z AUTO 17012KT 10SM OVC036 M06/M12 A2979 RMK AO2
KEKS 250215Z AUTO 17009G15KT 10SM BKN037 OVC042 M06/M12 A2979 RMK AO2
KEKS 250155Z AUTO 18010KT 10SM OVC043 M06/M12 A2978 RMK AO2
KEKS 250135Z AUTO 18010G15KT 10SM BKN038 OVC046 M06/M12 A2977 RMK AO2
KEKS 250115Z AUTO 17013KT 10SM OVC040 M06/M12 A2976 RMK AO2
KEKS 250055Z AUTO 18014KT 10SM FEW036 BKN042 OVC050 M05/M12 A2976 RMK AO2
KEKS 250035Z AUTO 18014KT 10SM BKN044 OVC050 M05/M13 A2976 RMK AO2
KEKS 250015Z AUTO 18014G19KT 10SM SCT040 OVC049 M05/M13 A2975 RMK AO2
KEKS 242355Z AUTO 18014G20KT 10SM BKN039 BKN046 M05/M13 A2975 RMK AO2
KEKS 242335Z AUTO 17016G21KT 10SM SCT045 M05/M13 A2975 RMK AO2
KEKS 242315Z AUTO 17015G24KT 10SM SCT033 SCT040 BKN046 M05/M13 A2975 RMK AO2
KEKS 242255Z AUTO 17019G26KT 10SM FEW023 FEW032 BKN041 M06/M13 A2975 RMK AO2
KEKS 242235Z AUTO 18020KT 10SM BKN045 BKN055 M06/M13 A2975 RMK AO2
KEKS 242215Z AUTO 18018G24KT 10SM SCT048 BKN060 BKN070 M05/M12 A2974 RMK AO2
KEKS 242155Z AUTO 18018KT 10SM SCT060 BKN070 M05/M12 A2974 RMK AO2
KEKS 242135Z AUTO 17018G26KT 10SM FEW034 FEW043 SCT055 M05/M12 A2974 RMK AO2
KEKS 242115Z AUTO 18020G26KT 10SM SCT035 SCT042 BKN049 M04/M12 A2974 RMK AO2
KEKS 242055Z AUTO 18017G22KT 10SM FEW041 FEW050 FEW060 M04/M12 A2975 RMK AO2
KEKS 242035Z AUTO 17016G22KT 10SM FEW042 SCT050 SCT060 M04/M13 A2976 RMK AO2
KEKS 242015Z AUTO 18017KT 10SM FEW050 M04/M12 A2976 RMK AO2
KEKS 241955Z AUTO 18016KT 10SM FEW060 M04/M12 A2977 RMK AO2
KEKS 241935Z AUTO 18013KT 10SM FEW060 M04/M12 A2979 RMK AO2
KEKS 241915Z AUTO 17015G22KT 10SM FEW065 M04/M13 A2979 RMK AO2
KEKS 241855Z AUTO 18018KT 10SM FEW065 M05/M13 A2980 RMK AO2
KEKS 241835Z AUTO 18018KT 10SM FEW060 M05/M13 A2981 RMK AO2
KEKS 241815Z AUTO 18016KT 10SM CLR M05/M13 A2982 RMK AO2
KEKS 241755Z AUTO 18017KT 10SM FEW038 FEW045 BKN055 M06/M13 A2982 RMK AO2
KEKS 241735Z AUTO 17015G23KT 10SM FEW045 OVC055 M06/M13 A2983 RMK AO2
KEKS 241715Z AUTO 17014G21KT 10SM OVC055 M06/M13 A2983 RMK AO2
KEKS 241655Z AUTO 17014KT 10SM FEW045 OVC060 M06/M14 A2984 RMK AO2
KEKS 241635Z AUTO 17016G22KT 10SM FEW044 BKN060 M07/M14 A2984 RMK AO2
KEKS 241615Z AUTO 17017KT 10SM OVC065 M08/M14 A2985 RMK AO2
KEKS 241555Z AUTO 17016KT 10SM OVC060 M08/M14 A2985 RMK AO2
KEKS 241535Z AUTO 17015KT 10SM OVC065 M08/M15 A2985 RMK AO2
KEKS 241515Z AUTO 16013G19KT 10SM FEW043 OVC065 M09/M15 A2985 RMK AO2
KEKS 241455Z AUTO 18013KT 10SM BKN042 BKN049 OVC065 M09/M14 A2986 RMK AO2
KEKS 241435Z AUTO 17014G21KT 10SM OVC049 M09/M14 A2986 RMK AO2
KEKS 241415Z AUTO 17012G17KT 10SM BKN048 OVC055 M09/M14 A2986 RMK AO2
KEKS 241355Z AUTO 18012KT 10SM OVC050 M08/M14 A2986 RMK AO2
KEKS 241335Z AUTO 16009KT 10SM FEW028 SCT050 BKN060 M09/M14 A2987 RMK AO2
KEKS 241315Z AUTO 18011G16KT 10SM FEW025 SCT031 BKN038 M09/M15 A2987 RMK AO2
KEKS 241255Z AUTO 16013KT 10SM SCT039 SCT044 OVC055 M08/M15 A2987 RMK AO2
KEKS 241235Z AUTO 16013G18KT 10SM FEW039 SCT045 OVC055 M08/M15 A2988 RMK AO2
KEKS 241215Z AUTO 15015KT 10SM OVC050 M09/M15 A2988 RMK AO2
KEKS 241155Z AUTO 17016G22KT 10SM OVC050 M09/M15 A2989 RMK AO2
KEKS 241135Z AUTO 17017KT 10SM OVC050 M09/M15 A2989 RMK AO2
KEKS 241115Z AUTO 17014KT 10SM OVC050 M09/M15 A2989 RMK AO2
KEKS 241055Z AUTO 17011KT 10SM OVC050 M09/M14 A2990 RMK AO2
KEKS 241035Z AUTO 16015KT 10SM OVC050 M09/M15 A2989 RMK AO2
KEKS 241015Z AUTO 15013KT 10SM BKN050 OVC055 M09/M14 A2991 RMK AO2
KEKS 240955Z AUTO 16014G21KT 10SM SCT034 OVC055 M09/M14 A2991 RMK AO2
KEKS 240935Z AUTO 17015G20KT 10SM SCT024 BKN033 OVC040 M09/M14 A2992 RMK AO2
KEKS 240915Z AUTO 18016KT 10SM SCT024 BKN030 OVC036 M09/M14 A2992 RMK AO2
KEKS 240855Z AUTO 16014KT 10SM BKN030 OVC036 M09/M14 A2992 RMK AO2
KEKS 240835Z AUTO 16012G17KT 10SM SCT030 BKN036 OVC042 M09/M14 A2993 RMK AO2
KEKS 240815Z AUTO 17012KT 10SM FEW032 BKN039 OVC049 M09/M14 A2993 RMK AO2
KEKS 240755Z AUTO 17014KT 10SM OVC032 M09/M14 A2993 RMK AO2
KEKS 240735Z AUTO 17011KT 10SM OVC032 M08/M14 A2993 RMK AO2
KEKS 240715Z AUTO 16011KT 10SM SCT033 BKN050 OVC065 M08/M14 A2993 RMK AO2
KEKS 240655Z AUTO 17013G18KT 10SM OVC070 M08/M14 A2993 RMK AO2
KEKS 240635Z AUTO 18011G16KT 10SM FEW049 FEW055 OVC070 M08/M14 A2993 RMK AO2
KEKS 240615Z AUTO 17012KT 10SM SCT049 BKN055 OVC075 M08/M14 A2994 RMK AO2
KEKS 240555Z AUTO 15013KT 10SM FEW042 FEW065 OVC075 M08/M13 A2994 RMK AO2
KEKS 240535Z AUTO 17013KT 10SM OVC075 M08/M14 A2995 RMK AO2